Time;durP1;ratioP1;P1;durP2;ratioP2;P2;SDS_P1;SDS_P2;PMS_P1;PMS_P2;Temp;Humidity;BMP_temperature;BMP_pressure;BME280_temperature;BME280_humidity;BME280_pressure;Samples;Min_cycle;Max_cycle;Signal;HPM_P1;HPM_P2
2022/06/25 00:01:28;;;;;;;;;;;;;;;18.21;100.00;99681.50;5133284;28;19927;-49
2022/06/25 00:03:54;;;;;;;;;;;;;;;18.14;100.00;99675.19;5133203;28;19927;-49
2022/06/25 00:06:21;;;;;;;;;;;;;;;18.12;100.00;99675.56;5133133;28;19927;-48
2022/06/25 00:08:47;;;;;;;;;;;;;;;18.10;100.00;99676.00;5133324;28;19927;-46
2022/06/25 00:13:54;;;;;;;;;;;;;;;18.11;100.00;99683.13;5132352;28;20385;-46
2022/06/25 00:16:20;;;;;;;;;;;;;;;18.14;100.00;99684.31;5133556;28;19929;-46
2022/06/25 00:18:46;;;;;;;;;;;;;;;18.17;100.00;99697.38;5132917;28;19977;-46
2022/06/25 00:21:12;;;;;;;;;;;;;;;18.14;100.00;99698.19;5133255;28;19931;-46
2022/06/25 00:23:38;;;;;;;;;;;;;;;18.18;100.00;99692.59;5132749;28;19942;-45
2022/06/25 00:26:04;;;;;;;;;;;;;;;18.15;100.00;99694.19;5133102;28;19931;-46
2022/06/25 00:28:30;;;;;;;;;;;;;;;18.13;100.00;99702.16;5132871;28;19933;-45
2022/06/25 00:30:56;;;;;;;;;;;;;;;18.08;100.00;99697.78;5132872;28;20318;-45
2022/06/25 00:33:23;;;;;;;;;;;;;;;18.12;100.00;99692.22;5132892;28;19934;-45
2022/06/25 00:35:49;;;;;;;;;;;;;;;18.13;100.00;99701.34;5132594;28;20297;-45
2022/06/25 00:38:15;;;;;;;;;;;;;;;18.08;100.00;99710.88;5133023;28;19970;-45
2022/06/25 00:40:41;;;;;;;;;;;;;;;18.06;100.00;99716.84;5132633;28;20417;-46
2022/06/25 00:43:07;;;;;;;;;;;;;;;18.11;100.00;99708.09;5132794;27;19928;-45
2022/06/25 00:45:33;;;;;;;;;;;;;;;18.07;100.00;99717.63;5132401;28;19928;-45
2022/06/25 00:47:59;;;;;;;;;;;;;;;18.07;100.00;99723.97;5133035;28;20001;-46
2022/06/25 00:50:25;;;;;;;;;;;;;;;18.00;100.00;99715.69;5132525;28;19950;-45
2022/06/25 00:52:52;;;;;;;;;;;;;;;18.03;100.00;99723.19;5132719;28;19991;-45
2022/06/25 00:55:20;;;;;;;;;;;;;;;18.05;100.00;99725.56;5132458;28;19934;-45
2022/06/25 00:57:49;;;;;;;;;;;;;;;18.03;100.00;99722.41;5132359;28;19932;-46
2022/06/25 01:00:17;;;;;;;;;;;;;;;18.04;100.00;99721.22;5132234;28;20069;-47
2022/06/25 01:02:44;;;;;;;;;;;;;;;17.98;100.00;99723.59;5132526;28;21060;-45
2022/06/25 01:05:11;;;;;;;;;;;;;;;17.94;100.00;99731.16;5132534;28;19950;-45
2022/06/25 01:07:39;;;;;;;;;;;;;;;17.91;100.00;99729.16;5132115;28;19927;-45
2022/06/25 01:10:06;;;;;;;;;;;;;;;17.79;100.00;99724.84;5132477;28;19928;-45
2022/06/25 01:12:32;;;;;;;;;;;;;;;17.86;100.00;99724.84;5132115;28;19928;-44
2022/06/25 01:15:02;;;;;;;;;;;;;;;17.81;100.00;99718.91;5132431;28;20363;-45
2022/06/25 01:17:29;;;;;;;;;;;;;;;17.77;100.00;99721.69;5132291;28;19934;-44
2022/06/25 01:19:55;;;;;;;;;;;;;;;17.83;100.00;99722.84;5132216;28;19927;-45
2022/06/25 01:22:21;;;;;;;;;;;;;;;17.81;100.00;99728.00;5131907;28;19934;-45
2022/06/25 01:24:47;;;;;;;;;;;;;;;17.75;100.00;99728.78;5132013;28;20398;-45
2022/06/25 01:27:14;;;;;;;;;;;;;;;17.78;100.00;99723.25;5131827;28;19928;-46
2022/06/25 01:29:40;;;;;;;;;;;;;;;17.73;100.00;99723.66;5131662;28;20025;-45
2022/06/25 01:32:06;;;;;;;;;;;;;;;17.74;100.00;99732.75;5132093;28;19927;-45
2022/06/25 01:34:32;;;;;;;;;;;;;;;17.63;100.00;99724.47;5131947;28;19950;-45
2022/06/25 01:36:58;;;;;;;;;;;;;;;17.63;100.00;99722.47;5131769;28;20425;-49
2022/06/25 01:39:25;;;;;;;;;;;;;;;17.70;100.00;99731.97;5131673;28;19942;-46
2022/06/25 01:41:51;;;;;;;;;;;;;;;17.71;100.00;99720.47;5132024;28;19927;-48
2022/06/25 01:44:17;;;;;;;;;;;;;;;17.65;100.00;99722.06;5131606;28;19949;-46
2022/06/25 01:46:43;;;;;;;;;;;;;;;17.77;100.00;99726.44;5131895;28;19981;-46
2022/06/25 01:49:09;;;;;;;;;;;;;;;17.66;100.00;99731.97;5131673;28;19927;-46
2022/06/25 01:51:34;;;;;;;;;;;;;;;17.67;100.00;99725.25;5131686;28;19927;-46
2022/06/25 01:54:00;;;;;;;;;;;;;;;17.64;100.00;99737.13;5131680;27;19927;-45
2022/06/25 01:56:27;;;;;;;;;;;;;;;17.79;100.00;99735.94;5131198;28;19927;-46
2022/06/25 01:58:53;;;;;;;;;;;;;;;17.85;100.00;99744.63;5131565;28;19927;-45
2022/06/25 02:01:19;;;;;;;;;;;;;;;17.90;100.00;99746.22;5131350;28;20390;-49
2022/06/25 02:03:45;;;;;;;;;;;;;;;17.93;100.00;99750.97;5131705;28;20461;-46
2022/06/25 02:06:11;;;;;;;;;;;;;;;17.92;100.00;99747.38;5131119;28;19927;-47
2022/06/25 02:08:37;;;;;;;;;;;;;;;17.96;100.00;99744.59;5131546;28;19935;-48
2022/06/25 02:11:04;;;;;;;;;;;;;;;17.98;100.00;99750.56;5131278;28;19928;-45
2022/06/25 02:13:31;;;;;;;;;;;;;;;17.95;100.00;99748.56;5131407;28;19927;-45
2022/06/25 02:15:57;;;;;;;;;;;;;;;18.03;100.00;99750.94;5131170;28;20413;-46
2022/06/25 02:18:23;;;;;;;;;;;;;;;18.09;100.00;99752.13;5131294;28;19928;-46
2022/06/25 02:20:50;;;;;;;;;;;;;;;18.24;100.00;99752.06;5131123;28;20326;-45
2022/06/25 02:23:16;;;;;;;;;;;;;;;18.52;100.00;99756.69;5131144;28;19935;-49
2022/06/25 02:25:42;;;;;;;;;;;;;;;19.03;100.00;99752.44;5130789;28;20386;-48
2022/06/25 02:28:09;;;;;;;;;;;;;;;19.45;100.00;99731.84;5131247;28;19981;-45
2022/06/25 02:30:36;;;;;;;;;;;;;;;20.03;100.00;99687.56;5131057;28;19927;-46
2022/06/25 02:33:02;;;;;;;;;;;;;;;20.36;100.00;99588.47;5131016;28;19966;-48
2022/06/25 02:35:28;;;;;;;;;;;;;;;20.86;100.00;99475.44;5130998;28;20382;-46
2022/06/25 02:37:54;;;;;;;;;;;;;;;21.13;100.00;99313.63;5130927;28;19955;-46
2022/06/25 02:40:20;;;;;;;;;;;;;;;21.48;100.00;99160.63;5130831;28;19927;-48
2022/06/25 02:42:46;;;;;;;;;;;;;;;21.92;100.00;99043.81;5130944;28;20018;-46
2022/06/25 02:45:12;;;;;;;;;;;;;;;22.20;100.00;98839.16;5130959;28;20291;-46
2022/06/25 02:47:39;;;;;;;;;;;;;;;22.27;100.00;98788.63;5130917;28;19927;-45
2022/06/25 02:50:06;;;;;;;;;;;;;;;22.86;100.00;98707.84;5130920;28;20313;-46
2022/06/25 02:52:32;;;;;;;;;;;;;;;23.00;100.00;98609.44;5130686;28;19927;-46
2022/06/25 02:54:58;;;;;;;;;;;;;;;23.29;100.00;98507.56;5130627;28;20424;-46
2022/06/25 03:00:08;;;;;;;;;;;;;;;23.44;100.00;98449.75;5130850;28;20347;-46
2022/06/25 03:02:35;;;;;;;;;;;;;;;22.94;100.00;98513.47;5131105;28;19931;-45
2022/06/25 03:05:02;;;;;;;;;;;;;;;22.52;100.00;98585.81;5130594;28;20372;-46
2022/06/25 03:07:28;;;;;;;;;;;;;;;23.23;100.00;98543.78;5132226;27;20443;-46
2022/06/25 03:09:54;;;;;;;;;;;;;;;23.56;100.00;98466.78;5134330;28;19934;-47
2022/06/25 03:12:21;;;;;;;;;;;;;;;24.09;100.00;98363.53;5134332;28;19927;-46
2022/06/25 03:14:47;;;;;;;;;;;;;;;24.40;100.00;98315.56;5134034;28;19928;-48
2022/06/25 03:17:13;;;;;;;;;;;;;;;24.89;100.00;98265.72;5134138;28;19927;-47
2022/06/25 03:19:39;;;;;;;;;;;;;;;25.31;100.00;98228.94;5133944;28;19973;-48
2022/06/25 03:22:05;;;;;;;;;;;;;;;25.04;100.00;98223.66;5133936;28;19927;-49
2022/06/25 03:24:31;;;;;;;;;;;;;;;25.61;100.00;98214.06;5134257;28;20365;-46
2022/06/25 03:26:57;;;;;;;;;;;;;;;25.99;100.00;98210.19;5133999;28;20058;-46
2022/06/25 03:29:23;;;;;;;;;;;;;;;25.87;100.00;98219.78;5133880;28;20398;-46
2022/06/25 03:31:49;;;;;;;;;;;;;;;25.89;100.00;98220.03;5133775;28;19967;-47
2022/06/25 03:34:15;;;;;;;;;;;;;;;25.93;100.00;98217.81;5134068;28;19978;-46
2022/06/25 03:36:41;;;;;;;;;;;;;;;26.31;100.00;98221.53;5133667;28;20461;-46
2022/06/25 03:39:08;;;;;;;;;;;;;;;26.32;100.00;98229.44;5133759;28;19927;-46
2022/06/25 03:41:35;;;;;;;;;;;;;;;26.40;100.00;98224.19;5133725;28;19931;-46
2022/06/25 03:44:03;;;;;;;;;;;;;;;26.68;100.00;98239.28;5133559;28;19927;-47
2022/06/25 03:46:29;;;;;;;;;;;;;;;26.33;100.00;98228.19;5133129;28;19934;-45
2022/06/25 03:48:55;;;;;;;;;;;;;;;27.18;100.00;98246.63;5132955;28;20421;-47
2022/06/25 03:51:21;;;;;;;;;;;;;;;26.84;100.00;98266.03;5133380;28;19927;-46
2022/06/25 03:53:48;;;;;;;;;;;;;;;27.34;100.00;98265.69;5133348;28;19935;-46
2022/06/25 03:56:14;;;;;;;;;;;;;;;27.55;100.00;98251.47;5133482;28;19976;-45
2022/06/25 03:58:40;;;;;;;;;;;;;;;27.38;100.00;98307.66;5133658;28;19933;-46
2022/06/25 04:01:06;;;;;;;;;;;;;;;27.95;100.00;98320.84;5133544;28;19936;-47
2022/06/25 04:03:32;;;;;;;;;;;;;;;28.28;100.00;98328.69;5133334;28;20310;-46
2022/06/25 04:05:58;;;;;;;;;;;;;;;28.01;100.00;98346.22;5133407;28;20302;-46
2022/06/25 04:08:24;;;;;;;;;;;;;;;26.34;100.00;98277.50;5133501;28;19934;-46
2022/06/25 04:10:50;;;;;;;;;;;;;;;28.25;100.00;98312.00;5133433;28;19928;-47
2022/06/25 04:13:17;;;;;;;;;;;;;;;28.45;100.00;98320.31;5133114;28;19931;-47
2022/06/25 04:15:43;;;;;;;;;;;;;;;28.13;100.00;98348.59;5132896;28;19927;-46
2022/06/25 04:18:09;;;;;;;;;;;;;;;28.50;100.00;98325.19;5132662;27;19935;-46
2022/06/25 04:20:36;;;;;;;;;;;;;;;28.45;100.00;98325.19;5132826;28;19934;-47
2022/06/25 04:23:02;;;;;;;;;;;;;;;29.06;100.00;98381.00;5132956;28;19934;-46
2022/06/25 04:25:28;;;;;;;;;;;;;;;28.31;100.00;98361.47;5132756;28;19935;-46
2022/06/25 04:30:38;;;;;;;;;;;;;;;28.58;100.00;98368.53;5133231;28;19993;-46
2022/06/25 04:33:04;;;;;;;;;;;;;;;29.36;100.00;98391.78;5133065;28;19927;-47
2022/06/25 04:35:30;;;;;;;;;;;;;;;28.90;100.00;98388.13;5132721;28;19927;-49
2022/06/25 04:37:56;;;;;;;;;;;;;;;28.52;100.00;98384.66;5132964;28;19932;-46
2022/06/25 04:40:22;;;;;;;;;;;;;;;28.97;100.00;98381.22;5132933;28;19950;-47
2022/06/25 04:42:48;;;;;;;;;;;;;;;29.14;100.00;98367.94;5132677;28;19973;-46
2022/06/25 04:45:14;;;;;;;;;;;;;;;29.73;100.00;98405.72;5132414;28;19927;-48
2022/06/25 04:47:41;;;;;;;;;;;;;;;29.21;100.00;98437.22;5132575;28;19939;-50
2022/06/25 04:50:07;;;;;;;;;;;;;;;29.97;100.00;98485.06;5132635;28;19927;-47
2022/06/25 04:52:33;;;;;;;;;;;;;;;30.07;100.00;98460.13;5132662;28;19931;-46
2022/06/25 04:54:59;;;;;;;;;;;;;;;30.33;100.00;98498.66;5132736;28;19935;-48
2022/06/25 04:57:25;;;;;;;;;;;;;;;30.48;100.00;98473.69;5132447;28;19957;-47
2022/06/25 04:59:51;;;;;;;;;;;;;;;29.95;100.00;98481.97;5133068;28;20046;-48
2022/06/25 05:02:17;;;;;;;;;;;;;;;30.59;100.00;98555.69;5132506;28;19934;-48
2022/06/25 05:04:44;;;;;;;;;;;;;;;30.58;100.00;98548.47;5132412;28;19927;-46
2022/06/25 05:07:10;;;;;;;;;;;;;;;30.93;100.00;98576.22;5132210;28;19927;-50
2022/06/25 05:09:36;;;;;;;;;;;;;;;30.98;100.00;98582.38;5132264;28;19954;-46
2022/06/25 05:12:02;;;;;;;;;;;;;;;30.46;100.00;98556.22;5132207;28;19928;-46
2022/06/25 05:14:28;;;;;;;;;;;;;;;30.38;100.00;98541.06;5131989;28;19931;-46
2022/06/25 05:16:54;;;;;;;;;;;;;;;31.44;100.00;98631.91;5132017;28;19931;-46
2022/06/25 05:19:20;;;;;;;;;;;;;;;31.28;100.00;98540.81;5132228;28;20317;-47
2022/06/25 05:21:47;;;;;;;;;;;;;;;31.96;100.00;98575.25;5132257;28;19932;-49
2022/06/25 05:24:13;;;;;;;;;;;;;;;31.74;100.00;98592.34;5131960;28;20301;-47
2022/06/25 05:26:39;;;;;;;;;;;;;;;31.84;100.00;98585.06;5131874;28;19927;-45
2022/06/25 05:29:05;;;;;;;;;;;;;;;31.45;100.00;98641.94;5131417;27;20030;-47
2022/06/25 05:31:31;;;;;;;;;;;;;;;31.32;100.00;98620.66;5131766;28;20301;-50
2022/06/25 05:33:57;;;;;;;;;;;;;;;31.86;100.00;98650.53;5131991;28;19927;-48
2022/06/25 05:36:23;;;;;;;;;;;;;;;31.77;100.00;98660.09;5131946;28;19928;-47
2022/06/25 05:38:50;;;;;;;;;;;;;;;32.38;100.00;98682.94;5131704;28;19939;-47
2022/06/25 05:41:16;;;;;;;;;;;;;;;32.26;100.00;98705.72;5131637;28;19958;-47
2022/06/25 05:43:42;;;;;;;;;;;;;;;31.88;100.00;98690.47;5131677;28;19927;-46
2022/06/25 05:46:08;;;;;;;;;;;;;;;31.48;100.00;98627.50;5131817;28;19927;-46
2022/06/25 05:48:34;;;;;;;;;;;;;;;30.46;100.00;98654.44;5131857;28;20408;-47
2022/06/25 05:51:00;;;;;;;;;;;;;;;31.78;100.00;98672.94;5131734;28;19970;-47
2022/06/25 05:53:26;;;;;;;;;;;;;;;30.99;100.00;98632.03;5131380;28;19993;-47
2022/06/25 05:55:53;;;;;;;;;;;;;;;30.84;100.00;98641.56;5131676;28;20346;-46
2022/06/25 05:58:19;;;;;;;;;;;;;;;31.12;100.00;98661.34;5131854;28;19927;-47
2022/06/25 06:00:46;;;;;;;;;;;;;;;30.68;100.00;98679.88;5131712;28;19985;-48
2022/06/25 06:03:12;;;;;;;;;;;;;;;30.90;100.00;98653.66;5131741;28;19928;-46
2022/06/25 06:05:38;;;;;;;;;;;;;;;30.96;100.00;98650.84;5131517;28;19950;-46
2022/06/25 06:08:05;;;;;;;;;;;;;;;31.86;100.00;98678.88;5131262;28;19927;-46
2022/06/25 06:10:31;;;;;;;;;;;;;;;31.87;100.00;98748.41;5131314;28;19928;-49
2022/06/25 06:12:57;;;;;;;;;;;;;;;31.98;100.00;98663.34;5131180;28;19928;-47
2022/06/25 06:15:23;;;;;;;;;;;;;;;31.99;100.00;98681.91;5131516;28;19927;-49
2022/06/25 06:17:49;;;;;;;;;;;;;;;32.35;100.00;98719.56;5131141;28;20439;-46
2022/06/25 06:20:15;;;;;;;;;;;;;;;32.41;100.00;98735.78;5131299;28;19953;-49
2022/06/25 06:22:41;;;;;;;;;;;;;;;32.58;100.00;98725.09;5131115;28;19977;-47
2022/06/25 06:25:07;;;;;;;;;;;;;;;32.70;100.00;98745.66;5131239;28;19927;-46
2022/06/25 06:27:34;;;;;;;;;;;;;;;33.07;100.00;98770.69;5131295;28;19934;-47
2022/06/25 06:30:00;;;;;;;;;;;;;;;33.05;100.00;98787.47;5131336;28;20298;-47
2022/06/25 06:32:27;;;;;;;;;;;;;;;32.85;100.00;98765.16;5131188;28;20044;-49
2022/06/25 06:34:53;;;;;;;;;;;;;;;32.33;100.00;98772.47;5130982;28;19927;-48
2022/06/25 06:37:19;;;;;;;;;;;;;;;32.63;100.00;98729.22;5130942;28;19931;-47
2022/06/25 06:39:45;;;;;;;;;;;;;;;32.05;100.00;98766.91;5130904;28;19931;-49
2022/06/25 06:42:11;;;;;;;;;;;;;;;31.29;100.00;98743.41;5133568;27;20283;-47
2022/06/25 06:44:36;;;;;;;;;;;;;;;31.50;100.00;98754.47;5134939;28;20397;-45
2022/06/25 06:47:03;;;;;;;;;;;;;;;31.98;100.00;98737.03;5134317;28;19927;-47
2022/06/25 06:49:29;;;;;;;;;;;;;;;32.03;100.00;98766.69;5134633;28;19934;-47
2022/06/25 06:51:55;;;;;;;;;;;;;;;32.33;100.00;98766.78;5134559;28;20290;-47
2022/06/25 06:54:21;;;;;;;;;;;;;;;32.29;100.00;98730.19;5134458;28;19935;-47
2022/06/25 06:56:47;;;;;;;;;;;;;;;31.72;100.00;98793.28;5134261;28;19927;-49
2022/06/25 06:59:13;;;;;;;;;;;;;;;30.58;100.00;98728.75;5134620;28;19982;-48
2022/06/25 07:01:41;;;;;;;;;;;;;;;30.98;100.00;98735.22;5134459;28;20396;-49
2022/06/25 07:04:07;;;;;;;;;;;;;;;32.03;100.00;98772.34;5134562;28;19927;-47
2022/06/25 07:06:33;;;;;;;;;;;;;;;32.26;100.00;98747.50;5134374;28;19927;-49
2022/06/25 07:08:59;;;;;;;;;;;;;;;31.70;100.00;98770.38;5134376;28;20356;-50
2022/06/25 07:11:31;;;;;;;;;;;;;;;32.15;100.00;98758.88;5134511;28;19954;-47
2022/06/25 07:13:58;;;;;;;;;;;;;;;31.39;100.00;98795.69;5134014;28;20408;-49
2022/06/25 07:16:24;;;;;;;;;;;;;;;31.48;100.00;98751.38;5134165;28;20032;-47
2022/06/25 07:18:51;;;;;;;;;;;;;;;31.88;100.00;98773.44;5134154;28;19949;-48
2022/06/25 07:21:17;;;;;;;;;;;;;;;32.25;100.00;98794.16;5134028;28;19934;-49
2022/06/25 07:23:43;;;;;;;;;;;;;;;31.53;100.00;98762.72;5134185;28;19927;-48
2022/06/25 07:26:09;;;;;;;;;;;;;;;31.21;100.00;98776.38;5134258;28;20460;-46
2022/06/25 07:28:35;;;;;;;;;;;;;;;31.31;100.00;98779.72;5134016;28;19928;-46
2022/06/25 07:31:01;;;;;;;;;;;;;;;31.64;100.00;98762.66;5133897;28;19927;-48
2022/06/25 07:33:29;;;;;;;;;;;;;;;32.50;100.00;98770.31;5133757;28;19953;-46
2022/06/25 07:35:55;;;;;;;;;;;;;;;32.62;100.00;98812.78;5133669;28;19927;-46
2022/06/25 07:38:22;;;;;;;;;;;;;;;31.47;100.00;98815.00;5134063;28;19934;-48
2022/06/25 07:40:48;;;;;;;;;;;;;;;31.41;100.00;98798.00;5133699;28;20455;-45
2022/06/25 07:43:14;;;;;;;;;;;;;;;31.44;100.00;98830.19;5133707;28;20301;-49
2022/06/25 07:45:41;;;;;;;;;;;;;;;30.12;100.00;98814.72;5133675;28;19935;-46
2022/06/25 07:48:07;;;;;;;;;;;;;;;31.13;100.00;98806.50;5133528;28;19927;-47
2022/06/25 07:53:17;;;;;;;;;;;;;;;31.52;100.00;98820.63;5132802;27;19934;-47
2022/06/25 07:55:43;;;;;;;;;;;;;;;31.51;100.00;98836.09;5133375;28;19927;-45
2022/06/25 07:58:10;;;;;;;;;;;;;;;30.68;100.00;98800.78;5133552;28;19928;-46
2022/06/25 08:00:36;;;;;;;;;;;;;;;30.87;100.00;98826.56;5133248;28;20424;-47
2022/06/25 08:03:01;;;;;;;;;;;;;;;31.64;100.00;98838.41;5133375;28;19970;-47
2022/06/25 08:05:27;;;;;;;;;;;;;;;31.44;100.00;98813.19;5133663;28;19972;-46
2022/06/25 08:07:53;;;;;;;;;;;;;;;31.56;100.00;98835.34;5133130;28;19934;-46
2022/06/25 08:10:19;;;;;;;;;;;;;;;31.88;100.00;98818.00;5133368;28;19932;-48
2022/06/25 08:12:46;;;;;;;;;;;;;;;32.26;100.00;98844.69;5133344;28;19932;-46
2022/06/25 08:15:12;;;;;;;;;;;;;;;31.82;100.00;98873.91;5133026;28;20008;-45
2022/06/25 08:17:38;;;;;;;;;;;;;;;31.16;100.00;98840.22;5133309;28;20046;-49
2022/06/25 08:20:04;;;;;;;;;;;;;;;32.21;100.00;98828.44;5133226;28;19928;-47
2022/06/25 08:22:30;;;;;;;;;;;;;;;30.59;100.00;98866.88;5133434;28;19934;-49
2022/06/25 08:24:56;;;;;;;;;;;;;;;31.11;100.00;98812.66;5133281;28;20390;-46
2022/06/25 08:27:22;;;;;;;;;;;;;;;31.17;100.00;98846.66;5132691;28;20315;-47
2022/06/25 08:29:49;;;;;;;;;;;;;;;30.96;100.00;98812.16;5132456;28;20026;-49
2022/06/25 08:32:15;;;;;;;;;;;;;;;31.38;100.00;98808.31;5132385;28;20345;-48
2022/06/25 08:34:42;;;;;;;;;;;;;;;30.96;100.00;98820.66;5131759;28;20347;-48
2022/06/25 08:37:09;;;;;;;;;;;;;;;31.70;100.00;98795.91;5132377;28;19933;-47
2022/06/25 08:39:35;;;;;;;;;;;;;;;32.09;100.00;98812.81;5132607;28;20263;-49
2022/06/25 08:42:02;;;;;;;;;;;;;;;31.86;100.00;98810.00;5132686;28;20076;-48
2022/06/25 08:44:29;;;;;;;;;;;;;;;32.45;100.00;98798.72;5132656;28;19927;-48
2022/06/25 08:46:55;;;;;;;;;;;;;;;32.14;100.00;98774.34;5132683;28;20018;-47
2022/06/25 08:49:22;;;;;;;;;;;;;;;31.84;100.00;98792.75;5132670;28;19931;-46
2022/06/25 08:51:48;;;;;;;;;;;;;;;32.30;100.00;98787.69;5132659;28;20012;-46
2022/06/25 08:54:16;;;;;;;;;;;;;;;31.52;100.00;98780.97;5132502;28;19928;-46
2022/06/25 08:56:42;;;;;;;;;;;;;;;32.06;100.00;98802.50;5132504;28;20275;-46
2022/06/25 08:59:08;;;;;;;;;;;;;;;32.42;100.00;98796.88;5132372;28;19927;-46
2022/06/25 09:01:34;;;;;;;;;;;;;;;32.12;100.00;98797.56;5132215;28;20385;-46
2022/06/25 09:04:01;;;;;;;;;;;;;;;31.73;100.00;98809.03;5132020;27;20010;-50
2022/06/25 09:06:27;;;;;;;;;;;;;;;31.77;100.00;98815.97;5131869;28;19973;-48
2022/06/25 09:09:09;;;;;;;;;;;;;;;32.01;100.00;98825.97;5132242;28;19934;-46
2022/06/25 09:11:47;;;;;;;;;;;;;;;31.99;100.00;98815.16;5132304;28;19977;-46
2022/06/25 09:14:18;;;;;;;;;;;;;;;32.13;100.00;98830.31;5132045;28;20368;-49
2022/06/25 09:16:48;;;;;;;;;;;;;;;32.00;100.00;98838.59;5132491;28;19938;-50
2022/06/25 09:19:26;;;;;;;;;;;;;;;32.05;100.00;98826.47;5132205;28;19928;-50
2022/06/25 09:21:52;;;;;;;;;;;;;;;32.38;100.00;98831.22;5132187;28;19927;-48
2022/06/25 09:24:18;;;;;;;;;;;;;;;31.94;100.00;98810.25;5131771;28;20420;-46
2022/06/25 09:26:50;;;;;;;;;;;;;;;31.47;100.00;98835.59;5131841;28;19939;-46
2022/06/25 09:29:16;;;;;;;;;;;;;;;30.81;100.00;98815.22;5131828;28;20030;-49
2022/06/25 09:31:42;;;;;;;;;;;;;;;32.02;100.00;98801.97;5131873;28;19927;-46
2022/06/25 09:34:08;;;;;;;;;;;;;;;31.74;100.00;98780.16;5131894;28;19931;-47
2022/06/25 09:36:36;;;;;;;;;;;;;;;31.61;100.00;98766.53;5131816;28;19927;-47
2022/06/25 09:39:02;;;;;;;;;;;;;;;32.07;100.00;98798.38;5132041;28;19927;-46
2022/06/25 09:41:46;;;;;;;;;;;;;;;31.58;100.00;98766.81;5131822;28;19935;-46
2022/06/25 09:44:14;;;;;;;;;;;;;;;30.62;100.00;98744.19;5131800;28;20394;-48
2022/06/25 09:46:53;;;;;;;;;;;;;;;29.61;100.00;98673.25;5131505;28;19934;-50
2022/06/25 09:49:21;;;;;;;;;;;;;;;30.57;100.00;98691.22;5131940;28;19927;-49
2022/06/25 09:51:57;;;;;;;;;;;;;;;31.02;100.00;98735.72;5131557;28;19981;-46
2022/06/25 09:54:23;;;;;;;;;;;;;;;31.67;100.00;98763.69;5131410;28;20398;-48
2022/06/25 09:56:49;;;;;;;;;;;;;;;31.21;100.00;98744.47;5131575;28;19927;-49
2022/06/25 09:59:16;;;;;;;;;;;;;;;31.31;100.00;98746.50;5131005;28;19931;-49
2022/06/25 10:01:42;;;;;;;;;;;;;;;31.07;100.00;98734.97;5131716;28;19927;-49
2022/06/25 10:04:08;;;;;;;;;;;;;;;30.98;100.00;98709.75;5131277;28;19934;-46
2022/06/25 10:06:35;;;;;;;;;;;;;;;31.47;100.00;98727.94;5131546;28;19928;-47
2022/06/25 10:09:03;;;;;;;;;;;;;;;31.79;100.00;98725.53;5131277;28;19972;-46
2022/06/25 10:11:30;;;;;;;;;;;;;;;31.51;100.00;98742.63;5131299;28;19927;-49
2022/06/25 10:13:56;;;;;;;;;;;;;;;31.37;100.00;98749.34;5131188;28;20332;-48
2022/06/25 10:16:23;;;;;;;;;;;;;;;31.03;100.00;98737.28;5130744;27;20068;-49
2022/06/25 10:18:50;;;;;;;;;;;;;;;30.60;100.00;98715.66;5131043;28;19974;-49
2022/06/25 10:21:16;;;;;;;;;;;;;;;30.20;100.00;98757.22;5131455;28;20393;-48
2022/06/25 10:23:43;;;;;;;;;;;;;;;29.80;100.00;98724.44;5131299;28;19934;-49
2022/06/25 10:26:10;;;;;;;;;;;;;;;30.75;100.00;98721.03;5131075;28;20026;-46
2022/06/25 10:28:36;;;;;;;;;;;;;;;30.65;100.00;98731.84;5131350;28;19976;-48
2022/06/25 10:31:05;;;;;;;;;;;;;;;30.06;100.00;98712.97;5130919;28;19927;-46
2022/06/25 10:33:36;;;;;;;;;;;;;;;30.08;100.00;98638.94;5131245;28;19927;-47
2022/06/25 10:36:04;;;;;;;;;;;;;;;30.41;100.00;98672.94;5130940;28;19927;-46
2022/06/25 10:38:31;;;;;;;;;;;;;;;29.99;100.00;98659.72;5131149;28;19927;-47
2022/06/25 10:40:57;;;;;;;;;;;;;;;29.53;100.00;98684.22;5130796;28;19934;-47
2022/06/25 10:43:40;;;;;;;;;;;;;;;29.61;100.00;98655.53;5130828;28;19938;-46
2022/06/25 10:46:24;;;;;;;;;;;;;;;30.16;100.00;98690.88;5130656;28;19981;-49
2022/06/25 10:48:51;;;;;;;;;;;;;;;30.05;100.00;98736.06;5130740;28;19928;-48
2022/06/25 10:51:27;;;;;;;;;;;;;;;30.04;100.00;98718.34;5130958;28;19927;-48
2022/06/25 10:53:53;;;;;;;;;;;;;;;29.61;100.00;98698.66;5130751;28;19931;-46
2022/06/25 10:56:19;;;;;;;;;;;;;;;30.05;100.00;98654.09;5130974;28;20263;-46
2022/06/25 10:58:47;;;;;;;;;;;;;;;29.72;100.00;98684.59;5130690;28;19931;-47
2022/06/25 11:01:20;;;;;;;;;;;;;;;29.24;100.00;98674.06;5130795;28;19927;-47
2022/06/25 11:03:50;;;;;;;;;;;;;;;29.08;100.00;98717.84;5130524;28;20389;-47
2022/06/25 11:06:17;;;;;;;;;;;;;;;28.66;100.00;98704.44;5130543;28;20314;-46
2022/06/25 11:08:44;;;;;;;;;;;;;;;28.89;100.00;98642.53;5130584;28;20436;-46
2022/06/25 11:11:10;;;;;;;;;;;;;;;29.27;100.00;98649.72;5130642;28;19934;-47
2022/06/25 11:13:36;;;;;;;;;;;;;;;28.95;100.00;98637.69;5130564;28;19937;-46
2022/06/25 11:16:12;;;;;;;;;;;;;;;28.94;100.00;98641.78;5130358;28;19927;-50
2022/06/25 11:18:45;;;;;;;;;;;;;;;28.95;100.00;98665.91;5130460;28;19927;-49
2022/06/25 11:21:11;;;;;;;;;;;;;;;29.33;100.00;98616.63;5130199;28;19980;-45
2022/06/25 11:23:36;;;;;;;;;;;;;;;28.95;100.00;98603.84;5130838;28;19931;-48
2022/06/25 11:28:49;;;;;;;;;;;;;;;28.90;100.00;98650.50;5100536;28;19931;-47
2022/06/25 11:31:16;;;;;;;;;;;;;;;28.72;100.00;98597.28;5133951;28;19927;-49
2022/06/25 11:33:43;;;;;;;;;;;;;;;28.53;100.00;98622.28;5133716;28;20405;-47
2022/06/25 11:36:09;;;;;;;;;;;;;;;28.63;100.00;98640.56;5134003;28;19928;-49
2022/06/25 11:38:36;;;;;;;;;;;;;;;28.37;100.00;98609.56;5133623;28;20313;-46
2022/06/25 11:41:02;;;;;;;;;;;;;;;28.58;100.00;98613.09;5133867;28;19927;-49
2022/06/25 11:43:28;;;;;;;;;;;;;;;28.59;100.00;98604.16;5133560;28;19927;-49
2022/06/25 11:45:55;;;;;;;;;;;;;;;28.76;100.00;98590.16;5133569;28;20428;-46
2022/06/25 11:48:25;;;;;;;;;;;;;;;28.43;100.00;98575.81;5133353;28;19928;-48
2022/06/25 11:50:53;;;;;;;;;;;;;;;28.89;100.00;98538.94;5133536;28;19928;-49
2022/06/25 11:53:19;;;;;;;;;;;;;;;28.90;100.00;98495.34;5133641;28;20429;-49
2022/06/25 11:55:55;;;;;;;;;;;;;;;28.98;100.00;98543.56;5133448;28;19927;-47
2022/06/25 11:58:21;;;;;;;;;;;;;;;29.02;100.00;98511.06;5133446;28;19927;-47
2022/06/25 12:00:47;;;;;;;;;;;;;;;29.13;100.00;98501.88;5133186;28;19993;-48
2022/06/25 12:03:13;;;;;;;;;;;;;;;28.79;100.00;98510.16;5133296;28;19957;-49
2022/06/25 12:05:40;;;;;;;;;;;;;;;28.54;100.00;98554.09;5133025;28;20447;-49
2022/06/25 12:08:06;;;;;;;;;;;;;;;28.65;100.00;98637.22;5133434;28;19927;-46
2022/06/25 12:10:32;;;;;;;;;;;;;;;28.73;100.00;98613.72;5133062;28;19927;-46
2022/06/25 12:12:58;;;;;;;;;;;;;;;29.09;100.00;98617.03;5133219;28;20502;-45
2022/06/25 12:15:29;;;;;;;;;;;;;;;29.37;100.00;98600.22;5132964;28;19939;-49
2022/06/25 12:18:02;;;;;;;;;;;;;;;29.02;100.00;98578.00;5133343;28;20091;-46
2022/06/25 12:20:28;;;;;;;;;;;;;;;29.05;100.00;98566.47;5132933;28;19928;-47
2022/06/25 12:22:56;;;;;;;;;;;;;;;29.03;100.00;98523.88;5133000;28;19953;-46
2022/06/25 12:25:23;;;;;;;;;;;;;;;29.20;100.00;98495.72;5133228;28;19934;-45
2022/06/25 12:27:50;;;;;;;;;;;;;;;29.43;100.00;98575.59;5132615;28;19927;-47
2022/06/25 12:30:20;;;;;;;;;;;;;;;29.15;100.00;98569.84;5133189;28;19933;-46
2022/06/25 12:32:47;;;;;;;;;;;;;;;28.69;100.00;98562.41;5133058;28;20069;-46
2022/06/25 12:35:17;;;;;;;;;;;;;;;29.22;100.00;98555.25;5133375;28;19927;-46
2022/06/25 12:37:43;;;;;;;;;;;;;;;29.05;100.00;98514.91;5132786;28;19939;-47
2022/06/25 12:40:10;;;;;;;;;;;;;;;29.44;100.00;98559.44;5132645;27;20032;-49
2022/06/25 12:42:37;;;;;;;;;;;;;;;29.19;100.00;98576.03;5132612;28;19931;-46
2022/06/25 12:45:03;;;;;;;;;;;;;;;29.15;100.00;98575.50;5132941;28;19928;-46
2022/06/25 12:47:39;;;;;;;;;;;;;;;29.08;100.00;98523.13;5132766;28;19934;-47